createdAt,value
2023-05-03T00:03:08.082Z,1
2023-05-03T00:08:24.390Z,1
2023-05-03T00:13:40.722Z,1
2023-05-03T00:18:57.074Z,1
2023-05-03T00:24:13.492Z,1
2023-05-03T00:29:29.835Z,1
2023-05-03T00:34:54.319Z,1
2023-05-03T00:40:11.407Z,1
2023-05-03T00:45:27.771Z,1
2023-05-03T00:50:44.131Z,0
2023-05-03T00:56:00.504Z,1
2023-05-03T01:01:16.887Z,1
2023-05-03T01:06:33.242Z,2
2023-05-03T01:11:49.617Z,2
2023-05-03T01:17:06.183Z,2
2023-05-03T01:22:22.622Z,1
2023-05-03T01:27:38.992Z,2
2023-05-03T01:32:55.406Z,2
2023-05-03T01:38:11.677Z,1
2023-05-03T01:43:28.015Z,1
2023-05-03T01:48:44.372Z,0
2023-05-03T01:54:00.714Z,1
2023-05-03T01:59:17.055Z,2
2023-05-03T02:04:33.456Z,1
2023-05-03T02:09:49.762Z,1
2023-05-03T02:15:06.099Z,1
2023-05-03T02:20:22.477Z,2
2023-05-03T02:25:38.802Z,1
2023-05-03T02:30:55.223Z,0
2023-05-03T02:36:11.514Z,2
2023-05-03T02:41:27.864Z,2
2023-05-03T02:46:44.231Z,2
2023-05-03T02:52:00.553Z,1
2023-05-03T02:57:16.900Z,0
2023-05-03T03:02:33.406Z,1
2023-05-03T03:07:49.603Z,1
2023-05-03T03:13:05.970Z,1
2023-05-03T03:18:22.300Z,1
2023-05-03T03:23:38.664Z,2
2023-05-03T03:28:55.003Z,1
2023-05-03T03:34:11.349Z,1
2023-05-03T03:39:27.703Z,0
2023-05-03T03:44:44.062Z,2
2023-05-03T03:50:00.451Z,2
2023-05-03T03:55:16.771Z,3
2023-05-03T04:00:33.131Z,3
2023-05-03T04:05:49.475Z,3
2023-05-03T04:11:05.826Z,2
2023-05-03T04:16:22.204Z,4
2023-05-03T04:21:38.549Z,12
2023-05-03T04:26:54.899Z,9
2023-05-03T04:32:11.252Z,5
2023-05-03T04:37:27.594Z,3
2023-05-03T04:42:43.976Z,8
2023-05-03T04:48:00.438Z,8
2023-05-03T04:53:16.671Z,5
2023-05-03T04:58:33.362Z,11
2023-05-03T05:03:49.529Z,4
2023-05-03T05:09:05.766Z,5
2023-05-03T05:14:22.107Z,10
2023-05-03T05:19:38.462Z,7
2023-05-03T05:24:55.506Z,8
2023-05-03T05:30:11.859Z,6
2023-05-03T05:35:28.214Z,14
2023-05-03T05:40:44.601Z,9
2023-05-03T05:46:00.948Z,11
2023-05-03T05:51:17.315Z,5
2023-05-03T05:56:33.663Z,5
2023-05-03T06:01:50.070Z,7
2023-05-03T06:07:06.377Z,8
2023-05-03T06:12:22.725Z,3
2023-05-03T06:17:39.113Z,3
2023-05-03T06:22:55.435Z,5
2023-05-03T06:28:11.768Z,14
2023-05-03T06:33:28.137Z,5
2023-05-03T06:38:44.491Z,4
2023-05-03T06:44:00.858Z,18
2023-05-03T06:49:17.211Z,13
2023-05-03T06:54:33.565Z,9
2023-05-03T06:59:50.441Z,18
2023-05-03T07:05:06.800Z,6
2023-05-03T07:10:23.203Z,8
2023-05-03T07:15:39.537Z,7
2023-05-03T07:20:55.856Z,8
2023-05-03T07:26:12.199Z,7
2023-05-03T07:31:28.528Z,5
2023-05-03T07:36:44.881Z,9
2023-05-03T07:42:01.239Z,7
2023-05-03T07:47:17.583Z,4
2023-05-03T07:52:33.948Z,6
2023-05-03T07:57:50.277Z,4
2023-05-03T08:03:06.857Z,9
2023-05-03T08:08:22.983Z,5
2023-05-03T08:13:39.326Z,2
2023-05-03T08:18:55.681Z,6
2023-05-03T08:24:12.814Z,5
2023-05-03T08:29:28.333Z,4
2023-05-03T08:34:44.683Z,4
2023-05-03T08:40:01.646Z,2
2023-05-03T08:45:17.813Z,2
2023-05-03T08:50:34.164Z,4
2023-05-03T08:55:50.515Z,7
2023-05-03T09:01:06.836Z,3
2023-05-03T09:06:23.245Z,4
2023-05-03T09:11:39.975Z,5
2023-05-03T09:16:56.220Z,3
2023-05-03T09:22:12.476Z,7
2023-05-03T09:27:28.800Z,6
2023-05-03T09:32:45.178Z,3
2023-05-03T09:38:01.494Z,4
2023-05-03T09:43:19.372Z,2
2023-05-03T09:48:34.248Z,9
2023-05-03T09:53:50.537Z,3
2023-05-03T09:59:06.868Z,2
2023-05-03T10:04:23.242Z,5
2023-05-03T10:09:40.109Z,4
2023-05-03T10:14:56.413Z,1
2023-05-03T10:20:12.745Z,2
2023-05-03T10:25:29.160Z,1
2023-05-03T10:30:45.497Z,2
2023-05-03T10:36:01.826Z,3
2023-05-03T10:41:18.161Z,2
2023-05-03T10:46:34.518Z,3
2023-05-03T10:51:50.826Z,3
2023-05-03T10:57:07.159Z,3
2023-05-03T11:02:23.580Z,2
2023-05-03T11:07:39.857Z,5
2023-05-03T11:12:56.210Z,5
2023-05-03T11:18:12.575Z,4
2023-05-03T11:23:28.913Z,2
2023-05-03T11:28:45.249Z,3
2023-05-03T11:34:01.568Z,5
2023-05-03T11:39:20.186Z,2
2023-05-03T11:44:34.271Z,2
2023-05-03T11:49:50.624Z,6
2023-05-03T11:55:06.970Z,3
2023-05-03T12:00:23.317Z,2
2023-05-03T12:05:40.005Z,2
2023-05-03T12:10:58.781Z,2
2023-05-03T12:16:14.114Z,3
2023-05-03T12:21:31.114Z,2
2023-05-03T12:26:45.127Z,6
2023-05-03T12:32:01.450Z,3
2023-05-03T12:37:17.897Z,3
2023-05-03T12:42:34.194Z,3
2023-05-03T12:47:50.921Z,2
2023-05-03T12:58:49.968Z,2
2023-05-03T13:09:00.054Z,2
2023-05-03T13:14:12.331Z,3
2023-05-03T13:19:28.667Z,3
2023-05-03T13:24:44.986Z,2
2023-05-03T13:30:01.318Z,4
2023-05-03T13:35:17.646Z,2
2023-05-03T13:40:33.976Z,3
2023-05-03T13:45:50.341Z,4
2023-05-03T13:51:06.645Z,3
2023-05-03T13:56:22.993Z,3
2023-05-03T14:01:39.504Z,4
2023-05-03T14:06:55.653Z,3
2023-05-03T14:12:12.002Z,2
2023-05-03T14:17:28.369Z,3
2023-05-03T14:22:44.781Z,4
2023-05-03T14:28:01.027Z,3
2023-05-03T14:33:17.336Z,3
2023-05-03T14:38:33.695Z,2
2023-05-03T14:43:50.066Z,3
2023-05-03T14:49:06.401Z,4
2023-05-03T14:54:22.750Z,3
2023-05-03T14:59:39.092Z,3
2023-05-03T15:04:55.441Z,3
2023-05-03T15:10:11.780Z,3
2023-05-03T15:15:28.105Z,3
2023-05-03T15:20:44.437Z,2
2023-05-03T15:26:00.762Z,2
2023-05-03T15:31:17.186Z,3
2023-05-03T15:36:33.450Z,3
2023-05-03T15:41:49.795Z,3
2023-05-03T15:47:06.123Z,4
2023-05-03T15:52:22.482Z,3
2023-05-03T15:57:38.815Z,3
2023-05-03T16:02:56.058Z,3
2023-05-03T16:08:12.300Z,4
2023-05-03T16:13:28.700Z,2
2023-05-03T16:18:44.946Z,3
2023-05-03T16:24:01.264Z,3
2023-05-03T16:29:17.609Z,3
2023-05-03T16:34:33.948Z,4
2023-05-03T16:39:50.308Z,7
2023-05-03T16:45:06.638Z,6
2023-05-03T16:50:23.008Z,6
2023-05-03T16:55:39.300Z,6
2023-05-03T17:00:55.931Z,7
2023-05-03T17:06:12.250Z,6
2023-05-03T17:11:28.609Z,5
2023-05-03T17:16:45.050Z,12
2023-05-03T17:22:01.308Z,6
2023-05-03T17:27:17.653Z,13
2023-05-03T17:32:34.053Z,11
2023-05-03T17:37:50.357Z,8
2023-05-03T17:43:06.727Z,13
2023-05-03T17:48:23.057Z,13
2023-05-03T17:53:39.423Z,13
2023-05-03T17:58:55.756Z,14
2023-05-03T18:04:12.113Z,12
2023-05-03T18:09:28.463Z,12
2023-05-03T18:14:44.826Z,13
2023-05-03T18:20:01.197Z,14
2023-05-03T18:25:17.547Z,12
2023-05-03T18:30:34.153Z,10
2023-05-03T18:35:50.498Z,9
2023-05-03T18:41:06.858Z,8
2023-05-03T18:46:23.257Z,10
2023-05-03T18:51:39.573Z,9
2023-05-03T18:56:55.921Z,10
2023-05-03T19:02:12.300Z,9
2023-05-03T19:07:28.630Z,8
2023-05-03T19:12:45.113Z,19
2023-05-03T19:18:01.442Z,13
2023-05-03T19:23:17.791Z,10
2023-05-03T19:28:34.120Z,13
2023-05-03T19:33:50.487Z,17
2023-05-03T19:39:06.861Z,16
2023-05-03T19:44:23.206Z,19
2023-05-03T19:49:39.592Z,16
2023-05-03T19:54:55.949Z,12
2023-05-03T20:00:12.301Z,14
2023-05-03T20:05:28.657Z,25
2023-05-03T20:10:46.524Z,16
2023-05-03T20:16:01.477Z,15
2023-05-03T20:21:17.788Z,15
2023-05-03T20:26:34.126Z,14
2023-05-03T20:31:50.521Z,12
2023-05-03T20:37:06.859Z,17
2023-05-03T20:42:23.224Z,15
2023-05-03T20:47:39.629Z,35
2023-05-03T20:52:56.005Z,19
2023-05-03T20:58:12.411Z,16
2023-05-03T21:03:28.933Z,12
2023-05-03T21:08:45.371Z,14
2023-05-03T21:14:02.150Z,13
2023-05-03T21:19:18.091Z,13
2023-05-03T21:24:34.439Z,12
2023-05-03T21:29:50.800Z,14
2023-05-03T21:35:07.160Z,15
2023-05-03T21:40:23.531Z,16
2023-05-03T21:45:39.910Z,12
2023-05-03T21:50:56.271Z,14
2023-05-03T21:56:12.624Z,13
2023-05-03T22:01:29.002Z,15
2023-05-03T22:06:45.370Z,13
2023-05-03T22:12:08.497Z,13
2023-05-03T22:17:18.143Z,15
2023-05-03T22:22:34.494Z,11
2023-05-03T22:27:50.862Z,13
2023-05-03T22:33:07.245Z,14
2023-05-03T22:38:23.808Z,12
2023-05-03T22:43:39.993Z,14
2023-05-03T22:48:56.385Z,9
2023-05-03T22:54:12.738Z,13
2023-05-03T22:59:29.120Z,12
2023-05-03T23:04:45.471Z,11
2023-05-03T23:10:01.989Z,12
2023-05-03T23:15:18.178Z,9
2023-05-03T23:20:34.654Z,10
2023-05-03T23:25:51.034Z,10
2023-05-03T23:31:07.417Z,10
2023-05-03T23:36:23.790Z,9
2023-05-03T23:41:40.156Z,9
2023-05-03T23:46:56.534Z,10
2023-05-03T23:52:12.914Z,10
2023-05-03T23:57:29.301Z,11
